createdAt,value
2017-12-17T00:00:10.104Z,0
2017-12-17T00:01:12.500Z,0
2017-12-17T00:02:14.916Z,0
2017-12-17T00:03:17.603Z,0
2017-12-17T00:04:20.011Z,0
2017-12-17T00:05:22.425Z,0
2017-12-17T00:06:25.112Z,0
2017-12-17T00:07:27.508Z,0
2017-12-17T00:08:29.923Z,0
2017-12-17T00:09:32.337Z,0
2017-12-17T00:10:35.026Z,0
2017-12-17T00:11:37.726Z,0
2017-12-17T00:12:40.130Z,0
2017-12-17T00:13:42.540Z,0
2017-12-17T00:14:45.252Z,0
2017-12-17T00:15:47.661Z,0
2017-12-17T00:16:50.054Z,0
2017-12-17T00:17:52.771Z,0
2017-12-17T00:18:55.179Z,0
2017-12-17T00:19:57.592Z,0
2017-12-17T00:20:59.994Z,0
2017-12-17T00:22:02.403Z,0
2017-12-17T00:23:04.811Z,0
2017-12-17T00:24:07.226Z,0
2017-12-17T00:25:09.639Z,0
2017-12-17T00:26:12.073Z,0
2017-12-17T00:27:14.439Z,0
2017-12-17T00:28:16.841Z,0
2017-12-17T00:29:19.556Z,0
2017-12-17T00:30:21.959Z,0
2017-12-17T00:31:24.354Z,0
2017-12-17T00:32:26.766Z,0
2017-12-17T00:33:29.172Z,0
2017-12-17T00:34:31.582Z,0
2017-12-17T00:35:33.984Z,0
2017-12-17T00:36:36.679Z,0
2017-12-17T00:37:39.077Z,0
2017-12-17T00:38:41.498Z,0
2017-12-17T00:39:43.902Z,0
2017-12-17T00:40:46.297Z,0
2017-12-17T00:41:48.743Z,0
2017-12-17T00:42:51.116Z,0
2017-12-17T00:43:53.531Z,0
2017-12-17T00:44:55.939Z,0
2017-12-17T00:45:58.629Z,0
2017-12-17T00:47:01.046Z,0
2017-12-17T00:48:03.452Z,0
2017-12-17T00:49:05.871Z,0
2017-12-17T00:50:08.289Z,0
2017-12-17T00:51:10.972Z,0
2017-12-17T00:52:13.378Z,0
2017-12-17T00:53:15.783Z,0
2017-12-17T00:54:18.188Z,0
2017-12-17T00:55:20.594Z,0
2017-12-17T00:56:23.002Z,0
2017-12-17T00:57:25.403Z,0
2017-12-17T00:58:27.816Z,0
2017-12-17T00:59:30.235Z,0
2017-12-17T01:00:32.923Z,0
2017-12-17T01:01:35.330Z,0
2017-12-17T01:02:37.727Z,0
2017-12-17T01:03:40.133Z,0
2017-12-17T01:04:42.543Z,0
2017-12-17T01:05:44.939Z,0
2017-12-17T01:06:47.346Z,0
2017-12-17T01:07:49.751Z,0
2017-12-17T01:08:52.161Z,0
2017-12-17T01:09:54.568Z,0
2017-12-17T01:10:56.981Z,0
2017-12-17T01:11:59.383Z,0
2017-12-17T01:13:02.080Z,0
2017-12-17T01:14:04.493Z,0
2017-12-17T01:15:06.890Z,0
2017-12-17T01:16:09.305Z,0
2017-12-17T01:17:11.712Z,0
2017-12-17T01:18:14.122Z,0
2017-12-17T01:19:17.388Z,0
2017-12-17T01:20:19.802Z,0
2017-12-17T01:21:22.202Z,0
2017-12-17T01:22:24.899Z,0
2017-12-17T01:23:27.583Z,0
2017-12-17T01:24:30.003Z,0
2017-12-17T01:25:32.407Z,0
2017-12-17T01:26:34.820Z,0
2017-12-17T01:27:37.225Z,0
2017-12-17T01:28:39.632Z,0
2017-12-17T01:29:42.037Z,0
2017-12-17T01:30:44.454Z,0
2017-12-17T01:31:46.856Z,0
2017-12-17T01:32:49.274Z,0
2017-12-17T01:33:51.678Z,0
2017-12-17T01:34:54.371Z,0
2017-12-17T01:35:56.774Z,0
2017-12-17T01:36:59.192Z,0
2017-12-17T01:38:01.873Z,0
2017-12-17T01:39:04.294Z,0
2017-12-17T01:40:06.699Z,0
2017-12-17T01:41:09.106Z,0
2017-12-17T01:42:11.797Z,0
2017-12-17T01:43:14.490Z,0
2017-12-17T01:44:16.894Z,0
2017-12-17T01:45:19.311Z,0
2017-12-17T01:46:21.714Z,0
2017-12-17T01:47:24.125Z,0
2017-12-17T01:48:26.532Z,0
2017-12-17T01:49:28.930Z,0
2017-12-17T01:50:31.335Z,0
2017-12-17T01:51:33.744Z,0
2017-12-17T01:52:36.143Z,0
2017-12-17T01:53:38.554Z,0
2017-12-17T01:54:40.957Z,0
2017-12-17T01:55:43.364Z,0
2017-12-17T01:56:45.815Z,0
2017-12-17T01:57:48.194Z,0
2017-12-17T01:58:50.601Z,0
2017-12-17T01:59:53.110Z,0
2017-12-17T02:00:55.805Z,0
2017-12-17T02:01:58.515Z,0
2017-12-17T02:03:00.928Z,0
2017-12-17T02:04:03.609Z,0
2017-12-17T02:05:06.022Z,0
2017-12-17T02:06:08.426Z,0
2017-12-17T02:07:10.834Z,0
2017-12-17T02:08:13.242Z,0
2017-12-17T02:09:15.640Z,0
2017-12-17T02:10:18.041Z,0
2017-12-17T02:11:20.461Z,0
2017-12-17T02:12:22.859Z,0
2017-12-17T02:13:25.267Z,0
2017-12-17T02:14:27.675Z,0
2017-12-17T02:15:30.085Z,0
2017-12-17T02:16:32.770Z,0
2017-12-17T02:17:35.181Z,0
2017-12-17T02:18:37.582Z,0
2017-12-17T02:19:39.982Z,0
2017-12-17T02:20:42.393Z,0
2017-12-17T02:21:44.804Z,0
2017-12-17T02:22:47.200Z,0
2017-12-17T02:23:49.612Z,0
2017-12-17T02:24:52.303Z,0
2017-12-17T02:25:54.997Z,0
2017-12-17T02:26:57.688Z,0
2017-12-17T02:28:00.096Z,0
2017-12-17T02:29:02.494Z,0
2017-12-17T02:30:04.908Z,0
2017-12-17T02:31:07.315Z,0
2017-12-17T02:32:09.722Z,0
2017-12-17T02:33:12.130Z,0
2017-12-17T02:34:14.817Z,0
2017-12-17T02:35:17.506Z,0
2017-12-17T02:36:19.914Z,0
2017-12-17T02:37:22.771Z,0
2017-12-17T02:38:25.540Z,0
2017-12-17T02:39:28.242Z,0
2017-12-17T02:40:30.644Z,0
2017-12-17T02:41:33.331Z,0
2017-12-17T02:42:36.034Z,0
2017-12-17T02:43:38.727Z,0
2017-12-17T02:44:41.425Z,0
2017-12-17T02:45:43.832Z,0
2017-12-17T02:46:46.536Z,0
2017-12-17T02:47:48.941Z,0
2017-12-17T02:48:51.347Z,0
2017-12-17T02:49:53.760Z,0
2017-12-17T02:50:56.968Z,0
2017-12-17T02:52:00.060Z,0
2017-12-17T02:53:02.651Z,0
2017-12-17T02:54:05.604Z,0
2017-12-17T02:55:08.148Z,0
2017-12-17T02:56:11.085Z,0
2017-12-17T02:57:13.511Z,0
2017-12-17T02:58:15.912Z,0
2017-12-17T02:59:18.359Z,0
2017-12-17T03:00:21.428Z,0
2017-12-17T03:01:23.962Z,0
2017-12-17T03:02:26.752Z,0
2017-12-17T03:03:29.711Z,0
2017-12-17T03:04:32.801Z,0
2017-12-17T03:05:36.366Z,0
2017-12-17T03:06:39.047Z,0
2017-12-17T03:07:41.724Z,0
2017-12-17T03:08:44.588Z,0
2017-12-17T03:09:47.562Z,0
2017-12-17T03:10:50.412Z,0
2017-12-17T03:11:53.250Z,0
2017-12-17T03:12:55.899Z,0
2017-12-17T03:13:58.677Z,0
2017-12-17T03:15:01.187Z,0
2017-12-17T03:16:03.603Z,0
2017-12-17T03:17:06.080Z,0
2017-12-17T03:18:08.586Z,0
2017-12-17T03:19:11.608Z,0
2017-12-17T03:20:14.508Z,0
2017-12-17T03:21:17.254Z,0
2017-12-17T03:22:19.795Z,0
2017-12-17T03:23:22.574Z,0
2017-12-17T03:24:25.017Z,0
2017-12-17T03:25:27.811Z,0
2017-12-17T03:26:30.696Z,0
2017-12-17T03:27:33.911Z,0
2017-12-17T03:28:36.449Z,0
2017-12-17T03:29:39.016Z,0
2017-12-17T03:30:41.783Z,0
2017-12-17T03:31:44.277Z,0
2017-12-17T03:32:46.819Z,0
2017-12-17T03:33:49.382Z,0
2017-12-17T03:34:51.820Z,0
2017-12-17T03:35:54.235Z,0
2017-12-17T03:36:56.636Z,0
2017-12-17T03:37:59.341Z,0
2017-12-17T03:39:01.755Z,0
2017-12-17T03:40:04.159Z,0
2017-12-17T03:41:07.181Z,0
2017-12-17T03:42:09.582Z,0
2017-12-17T03:43:11.997Z,0
2017-12-17T03:44:14.405Z,0
2017-12-17T03:45:16.806Z,0
2017-12-17T03:46:19.224Z,0
2017-12-17T03:47:21.629Z,0
2017-12-17T03:48:24.039Z,0
2017-12-17T03:49:26.454Z,0
2017-12-17T03:50:28.858Z,0
2017-12-17T03:51:31.592Z,0
2017-12-17T03:52:33.999Z,0
2017-12-17T03:53:36.402Z,0
2017-12-17T03:54:38.811Z,0
2017-12-17T03:55:41.220Z,0
2017-12-17T03:56:43.629Z,0
2017-12-17T03:57:46.038Z,0
2017-12-17T03:58:48.443Z,0
2017-12-17T03:59:50.848Z,0
2017-12-17T04:00:53.270Z,0
2017-12-17T04:01:55.666Z,0
2017-12-17T04:02:58.077Z,0
2017-12-17T04:04:00.480Z,0
2017-12-17T04:05:02.881Z,0
2017-12-17T04:06:05.291Z,0
2017-12-17T04:07:07.821Z,0
2017-12-17T04:08:10.425Z,0
2017-12-17T04:09:12.833Z,0
2017-12-17T04:10:15.237Z,0
2017-12-17T04:11:17.651Z,0
2017-12-17T04:12:20.054Z,0
2017-12-17T04:13:22.473Z,0
2017-12-17T04:14:24.875Z,0
2017-12-17T04:15:27.289Z,0
2017-12-17T04:16:29.692Z,0
2017-12-17T04:17:32.394Z,0
2017-12-17T04:18:34.802Z,0
2017-12-17T04:19:37.200Z,0
2017-12-17T04:20:39.616Z,0
2017-12-17T04:21:42.017Z,0
2017-12-17T04:22:44.418Z,0
2017-12-17T04:23:46.830Z,0
2017-12-17T04:24:49.223Z,0
2017-12-17T04:25:51.636Z,0
2017-12-17T04:26:54.048Z,0
2017-12-17T04:27:56.456Z,0
2017-12-17T04:28:59.155Z,0
2017-12-17T04:30:01.569Z,0
2017-12-17T04:31:03.969Z,0
2017-12-17T04:32:06.659Z,0
2017-12-17T04:33:09.073Z,0
2017-12-17T04:34:11.463Z,0
2017-12-17T04:35:13.883Z,0
2017-12-17T04:36:16.282Z,0
2017-12-17T04:37:18.687Z,0
2017-12-17T04:38:21.094Z,0
2017-12-17T04:39:23.503Z,0
2017-12-17T04:40:25.908Z,0
2017-12-17T04:41:28.329Z,0
2017-12-17T04:42:30.728Z,0
2017-12-17T04:43:33.136Z,0
2017-12-17T04:44:35.543Z,0
2017-12-17T04:45:37.953Z,0
2017-12-17T04:46:40.650Z,0
2017-12-17T04:47:43.057Z,0
2017-12-17T04:48:45.763Z,0
2017-12-17T04:49:48.164Z,0
2017-12-17T04:50:50.576Z,0
2017-12-17T04:51:52.982Z,0
2017-12-17T04:52:55.401Z,0
2017-12-17T04:53:57.801Z,0
2017-12-17T04:55:00.496Z,0
2017-12-17T04:56:02.894Z,0
2017-12-17T04:57:05.315Z,0
2017-12-17T04:58:07.724Z,0
2017-12-17T04:59:10.125Z,0
2017-12-17T05:00:12.542Z,0
2017-12-17T05:01:14.943Z,0
2017-12-17T05:02:17.633Z,0
2017-12-17T05:03:20.032Z,0
2017-12-17T05:04:22.447Z,0
2017-12-17T05:05:24.854Z,0
2017-12-17T05:06:27.262Z,0
2017-12-17T05:07:29.670Z,0
2017-12-17T05:08:32.079Z,0
2017-12-17T05:09:34.497Z,0
2017-12-17T05:10:36.901Z,0
2017-12-17T05:11:39.313Z,0
2017-12-17T05:12:41.715Z,0
2017-12-17T05:13:44.127Z,0
2017-12-17T05:14:46.549Z,0
2017-12-17T05:15:48.958Z,0
2017-12-17T05:16:51.358Z,0
2017-12-17T05:17:53.768Z,0
2017-12-17T05:18:56.165Z,0
2017-12-17T05:19:58.573Z,0
2017-12-17T05:21:01.279Z,0
2017-12-17T05:22:03.681Z,0
2017-12-17T05:23:06.094Z,0
2017-12-17T05:24:08.496Z,0
2017-12-17T05:25:10.910Z,0
2017-12-17T05:26:13.320Z,0
2017-12-17T05:27:16.034Z,0
2017-12-17T05:28:18.439Z,0
2017-12-17T05:29:20.846Z,0
2017-12-17T05:30:23.545Z,0
2017-12-17T05:31:26.254Z,0
2017-12-17T05:32:28.657Z,0
2017-12-17T05:33:31.352Z,0
2017-12-17T05:34:34.033Z,0
2017-12-17T05:35:36.446Z,0
2017-12-17T05:36:38.855Z,0
2017-12-17T05:37:41.541Z,0
2017-12-17T05:38:43.953Z,0
2017-12-17T05:39:46.375Z,0
2017-12-17T05:40:48.757Z,0
2017-12-17T05:41:51.172Z,0
2017-12-17T05:42:53.576Z,0
2017-12-17T05:43:55.989Z,0
2017-12-17T05:44:58.392Z,0
2017-12-17T05:46:00.808Z,0
2017-12-17T05:47:03.210Z,0
2017-12-17T05:48:05.619Z,0
2017-12-17T05:49:08.027Z,0
2017-12-17T05:50:10.434Z,0
2017-12-17T05:51:12.840Z,0
2017-12-17T05:52:15.563Z,0
2017-12-17T05:53:17.972Z,0
2017-12-17T05:54:20.385Z,0
2017-12-17T05:55:22.788Z,0
2017-12-17T05:56:25.476Z,0
2017-12-17T05:57:27.887Z,0
2017-12-17T05:58:30.295Z,0
2017-12-17T05:59:32.732Z,0
2017-12-17T06:00:35.102Z,0
2017-12-17T06:01:37.515Z,0
2017-12-17T06:02:39.916Z,0
2017-12-17T06:03:42.613Z,0
2017-12-17T06:04:45.015Z,0
2017-12-17T06:05:47.422Z,0
2017-12-17T06:06:49.842Z,0
2017-12-17T06:07:52.246Z,0
2017-12-17T06:08:54.646Z,0
2017-12-17T06:09:57.048Z,0
2017-12-17T06:10:59.459Z,0
2017-12-17T06:12:01.862Z,0
2017-12-17T06:13:04.261Z,0
2017-12-17T06:14:06.671Z,0
2017-12-17T06:15:09.075Z,0
2017-12-17T06:16:11.488Z,0
2017-12-17T06:17:13.889Z,0
2017-12-17T06:18:16.294Z,0
2017-12-17T06:19:18.747Z,0
2017-12-17T06:20:21.160Z,0
2017-12-17T06:21:23.562Z,0
2017-12-17T06:22:25.974Z,0
2017-12-17T06:23:28.658Z,0
2017-12-17T06:24:31.063Z,0
2017-12-17T06:25:33.465Z,0
2017-12-17T06:26:35.866Z,0
2017-12-17T06:27:38.568Z,0
2017-12-17T06:28:40.971Z,0
2017-12-17T06:29:43.381Z,0
2017-12-17T06:30:45.781Z,0
2017-12-17T06:31:48.190Z,0
2017-12-17T06:32:50.607Z,0
2017-12-17T06:33:53.010Z,0
2017-12-17T06:34:55.421Z,0
2017-12-17T06:35:57.840Z,0
2017-12-17T06:37:00.808Z,0
2017-12-17T06:38:03.222Z,0
2017-12-17T06:39:05.636Z,0
2017-12-17T06:40:08.029Z,0
2017-12-17T06:41:10.449Z,0
2017-12-17T06:42:12.857Z,0
2017-12-17T06:43:15.272Z,0
2017-12-17T06:44:17.945Z,0
2017-12-17T06:45:20.672Z,0
2017-12-17T06:46:23.074Z,0
2017-12-17T06:47:25.474Z,0
2017-12-17T06:48:27.884Z,0
2017-12-17T06:49:30.287Z,0
2017-12-17T06:50:32.695Z,0
2017-12-17T06:51:35.106Z,0
2017-12-17T06:52:37.794Z,0
2017-12-17T06:53:40.196Z,0
2017-12-17T06:54:42.615Z,0
2017-12-17T06:55:45.300Z,0
2017-12-17T06:56:47.718Z,0
2017-12-17T06:57:50.123Z,0
2017-12-17T06:58:52.522Z,0
2017-12-17T06:59:54.932Z,0
2017-12-17T07:00:57.342Z,0
2017-12-17T07:01:59.751Z,0
2017-12-17T07:03:02.443Z,0
2017-12-17T07:04:04.835Z,0
2017-12-17T07:05:07.254Z,0
2017-12-17T07:06:09.656Z,0
2017-12-17T07:07:12.065Z,0
2017-12-17T07:08:14.472Z,0
2017-12-17T07:09:16.878Z,0
2017-12-17T07:10:19.288Z,0
2017-12-17T07:11:21.702Z,0
2017-12-17T07:12:24.108Z,0
2017-12-17T07:13:26.503Z,0
2017-12-17T07:14:28.917Z,0
2017-12-17T07:15:31.331Z,0
2017-12-17T07:16:33.738Z,0
2017-12-17T07:17:36.150Z,0
2017-12-17T07:18:38.578Z,0
2017-12-17T07:19:40.980Z,1
2017-12-17T07:20:43.406Z,0
2017-12-17T07:21:45.801Z,0
2017-12-17T07:22:48.218Z,0
2017-12-17T07:23:50.623Z,0
2017-12-17T07:24:53.034Z,0
2017-12-17T07:25:55.726Z,0
2017-12-17T07:26:58.425Z,0
2017-12-17T07:28:00.821Z,0
2017-12-17T07:29:03.233Z,1
2017-12-17T07:30:05.647Z,1
2017-12-17T07:31:08.058Z,1
2017-12-17T07:32:10.484Z,1
2017-12-17T07:33:12.885Z,1
2017-12-17T07:34:15.296Z,1
2017-12-17T07:35:17.709Z,1
2017-12-17T07:36:20.110Z,2
2017-12-17T07:37:22.527Z,2
2017-12-17T07:38:24.930Z,2
2017-12-17T07:39:27.349Z,2
2017-12-17T07:40:29.760Z,3
2017-12-17T07:41:32.164Z,3
2017-12-17T07:42:34.571Z,3
2017-12-17T07:43:37.003Z,4
2017-12-17T07:44:39.384Z,4
2017-12-17T07:45:41.805Z,5
2017-12-17T07:46:44.209Z,5
2017-12-17T07:47:46.616Z,4
2017-12-17T07:48:49.311Z,4
2017-12-17T07:49:51.725Z,4
2017-12-17T07:50:54.131Z,4
2017-12-17T07:51:56.542Z,5
2017-12-17T07:52:58.951Z,5
2017-12-17T07:54:01.355Z,5
2017-12-17T07:55:03.777Z,5
2017-12-17T07:56:06.468Z,5
2017-12-17T07:57:08.873Z,6
2017-12-17T07:58:11.282Z,6
2017-12-17T07:59:14.240Z,6
2017-12-17T08:00:16.657Z,6
2017-12-17T08:01:19.067Z,5
2017-12-17T08:02:21.470Z,5
2017-12-17T08:03:23.879Z,5
2017-12-17T08:04:26.287Z,5
2017-12-17T08:05:29.278Z,5
2017-12-17T08:06:31.695Z,6
2017-12-17T08:07:34.098Z,6
2017-12-17T08:08:36.513Z,7
2017-12-17T08:09:38.927Z,7
2017-12-17T08:10:41.330Z,7
2017-12-17T08:11:44.035Z,7
2017-12-17T08:12:46.437Z,8
2017-12-17T08:13:49.141Z,7
2017-12-17T08:14:51.547Z,7
2017-12-17T08:15:53.960Z,7
2017-12-17T08:16:56.366Z,6
2017-12-17T08:17:58.778Z,6
2017-12-17T08:19:01.185Z,6
2017-12-17T08:20:03.604Z,6
2017-12-17T08:21:06.007Z,6
2017-12-17T08:22:08.416Z,6
2017-12-17T08:23:10.823Z,6
2017-12-17T08:24:13.239Z,7
2017-12-17T08:25:15.654Z,7
2017-12-17T08:26:18.067Z,7
2017-12-17T08:27:20.471Z,6
2017-12-17T08:28:22.885Z,6
2017-12-17T08:29:25.285Z,5
2017-12-17T08:30:27.703Z,4
2017-12-17T08:31:30.114Z,4
2017-12-17T08:32:32.520Z,5
2017-12-17T08:33:34.925Z,5
2017-12-17T08:34:37.345Z,6
2017-12-17T08:35:40.458Z,6
2017-12-17T08:36:43.104Z,6
2017-12-17T08:37:45.515Z,6
2017-12-17T08:38:48.213Z,7
2017-12-17T08:39:50.619Z,7
2017-12-17T08:40:53.333Z,7
2017-12-17T08:41:55.736Z,7
2017-12-17T08:42:58.451Z,8
2017-12-17T08:44:01.131Z,8
2017-12-17T08:45:03.539Z,8
2017-12-17T08:46:05.960Z,8
2017-12-17T08:47:08.674Z,8
2017-12-17T08:48:11.097Z,8
2017-12-17T08:49:13.511Z,8
2017-12-17T08:50:15.923Z,9
2017-12-17T08:51:18.339Z,9
2017-12-17T08:52:20.751Z,9
2017-12-17T08:53:23.149Z,9
2017-12-17T08:54:25.560Z,9
2017-12-17T08:55:27.963Z,9
2017-12-17T08:56:30.657Z,8
2017-12-17T08:57:33.365Z,8
2017-12-17T08:58:35.760Z,8
2017-12-17T08:59:38.179Z,8
2017-12-17T09:00:40.893Z,9
2017-12-17T09:01:43.587Z,10
2017-12-17T09:02:46.007Z,9
2017-12-17T09:03:48.418Z,9
2017-12-17T09:04:50.829Z,10
2017-12-17T09:05:53.256Z,10
2017-12-17T09:06:55.670Z,10
2017-12-17T09:07:58.344Z,11
2017-12-17T09:09:00.775Z,10
2017-12-17T09:10:03.169Z,10
2017-12-17T09:11:05.584Z,13
2017-12-17T09:12:08.020Z,14
2017-12-17T09:13:10.413Z,14
2017-12-17T09:14:12.813Z,15
2017-12-17T09:15:15.235Z,15
2017-12-17T09:16:17.643Z,16
2017-12-17T09:17:20.059Z,17
2017-12-17T09:18:22.468Z,18
2017-12-17T09:19:24.869Z,19
2017-12-17T09:20:27.279Z,20
2017-12-17T09:21:30.272Z,24
2017-12-17T09:22:32.679Z,26
2017-12-17T09:23:35.089Z,26
2017-12-17T09:24:37.493Z,30
2017-12-17T09:25:39.910Z,30
2017-12-17T09:26:42.320Z,30
2017-12-17T09:27:44.730Z,29
2017-12-17T09:28:47.441Z,30
2017-12-17T09:29:50.138Z,32
2017-12-17T09:30:52.539Z,35
2017-12-17T09:31:54.964Z,36
2017-12-17T09:32:57.370Z,37
2017-12-17T09:33:59.772Z,42
2017-12-17T09:35:02.474Z,117
2017-12-17T09:36:04.887Z,39
2017-12-17T09:37:07.297Z,29
2017-12-17T09:38:09.708Z,31
2017-12-17T09:39:12.117Z,32
2017-12-17T09:40:14.818Z,32
2017-12-17T09:41:17.222Z,31
2017-12-17T09:42:19.647Z,27
2017-12-17T09:43:22.058Z,25
2017-12-17T09:44:24.473Z,22
2017-12-17T09:45:26.886Z,22
2017-12-17T09:46:29.294Z,21
2017-12-17T09:47:31.700Z,23
2017-12-17T09:48:34.108Z,23
2017-12-17T09:49:36.514Z,21
2017-12-17T09:50:38.930Z,20
2017-12-17T09:51:41.333Z,23
2017-12-17T09:52:43.749Z,26
2017-12-17T09:53:46.152Z,28
2017-12-17T09:54:48.567Z,30
2017-12-17T09:55:51.272Z,27
2017-12-17T09:56:53.688Z,27
2017-12-17T09:57:56.101Z,28
2017-12-17T09:58:58.520Z,29
2017-12-17T10:00:00.937Z,30
2017-12-17T10:01:03.349Z,31
2017-12-17T10:02:05.764Z,31
2017-12-17T10:03:08.177Z,32
2017-12-17T10:04:10.593Z,32
2017-12-17T10:05:13.001Z,35
2017-12-17T10:06:15.411Z,38
2017-12-17T10:07:17.830Z,41
2017-12-17T10:08:20.237Z,42
2017-12-17T10:09:22.920Z,44
2017-12-17T10:10:25.625Z,44
2017-12-17T10:11:28.322Z,46
2017-12-17T10:12:30.744Z,47
2017-12-17T10:13:33.155Z,48
2017-12-17T10:14:35.573Z,49
2017-12-17T10:15:38.266Z,50
2017-12-17T10:16:40.692Z,52
2017-12-17T10:17:43.095Z,50
2017-12-17T10:18:45.503Z,50
2017-12-17T10:19:48.201Z,51
2017-12-17T10:20:50.610Z,69
2017-12-17T10:21:53.309Z,60
2017-12-17T10:22:55.734Z,41
2017-12-17T10:23:58.137Z,35
2017-12-17T10:25:00.565Z,48
2017-12-17T10:26:02.980Z,49
2017-12-17T10:27:05.400Z,52
2017-12-17T10:28:07.812Z,49
2017-12-17T10:29:10.226Z,45
2017-12-17T10:30:12.632Z,42
2017-12-17T10:31:15.055Z,36
2017-12-17T10:32:17.753Z,33
2017-12-17T10:33:20.166Z,37
2017-12-17T10:34:22.574Z,35
2017-12-17T10:35:24.989Z,29
2017-12-17T10:36:27.685Z,23
2017-12-17T10:37:30.152Z,20
2017-12-17T10:38:32.822Z,17
2017-12-17T10:39:35.800Z,18
2017-12-17T10:40:38.198Z,20
2017-12-17T10:41:40.617Z,17
2017-12-17T10:42:43.038Z,15
2017-12-17T10:43:45.445Z,16
2017-12-17T10:44:47.853Z,17
2017-12-17T10:45:50.263Z,16
2017-12-17T10:46:52.669Z,14
2017-12-17T10:47:55.371Z,14
2017-12-17T10:48:57.783Z,13
2017-12-17T10:50:00.470Z,12
2017-12-17T10:51:02.893Z,12
2017-12-17T10:52:05.317Z,14
2017-12-17T10:53:08.033Z,13
2017-12-17T10:54:10.744Z,12
2017-12-17T10:55:13.158Z,15
2017-12-17T10:56:15.571Z,18
2017-12-17T10:57:17.997Z,20
2017-12-17T10:58:20.404Z,22
2017-12-17T10:59:22.812Z,24
2017-12-17T11:00:25.224Z,22
2017-12-17T11:01:27.634Z,24
2017-12-17T11:02:30.610Z,25
2017-12-17T11:03:33.022Z,23
2017-12-17T11:04:35.421Z,24
2017-12-17T11:05:38.041Z,25
2017-12-17T11:06:40.458Z,28
2017-12-17T11:07:42.874Z,30
2017-12-17T11:08:45.589Z,28
2017-12-17T11:09:47.996Z,21
2017-12-17T11:10:50.421Z,15
2017-12-17T11:11:52.819Z,16
2017-12-17T11:12:55.518Z,17
2017-12-17T11:13:57.941Z,19
2017-12-17T11:15:00.340Z,22
2017-12-17T11:16:02.757Z,25
2017-12-17T11:17:05.173Z,30
2017-12-17T11:18:07.584Z,34
2017-12-17T11:19:10.005Z,40
2017-12-17T11:20:12.706Z,45
2017-12-17T11:21:15.110Z,47
2017-12-17T11:22:17.530Z,49
2017-12-17T11:23:19.930Z,53
2017-12-17T11:24:22.345Z,52
2017-12-17T11:25:24.764Z,48
2017-12-17T11:26:27.171Z,49
2017-12-17T11:27:29.923Z,50
2017-12-17T11:28:32.333Z,51
2017-12-17T11:29:34.734Z,51
2017-12-17T11:30:37.669Z,52
2017-12-17T11:31:40.072Z,55
2017-12-17T11:32:42.486Z,50
2017-12-17T11:33:44.898Z,50
2017-12-17T11:34:47.310Z,38
2017-12-17T11:35:49.729Z,36
2017-12-17T11:36:52.139Z,38
2017-12-17T11:37:54.552Z,40
2017-12-17T11:38:56.960Z,49
2017-12-17T11:39:59.364Z,61
2017-12-17T11:41:01.778Z,81
2017-12-17T11:42:04.475Z,84
2017-12-17T11:43:06.882Z,90
2017-12-17T11:44:09.294Z,83
2017-12-17T11:45:11.711Z,89
2017-12-17T11:46:14.121Z,89
2017-12-17T11:47:16.543Z,93
2017-12-17T11:48:18.954Z,105
2017-12-17T11:49:21.360Z,110
2017-12-17T11:50:23.774Z,144
2017-12-17T11:51:26.184Z,132
2017-12-17T11:52:28.600Z,130
2017-12-17T11:53:31.011Z,177
2017-12-17T11:54:33.415Z,101
2017-12-17T11:55:35.832Z,107
2017-12-17T11:56:38.253Z,157
2017-12-17T11:57:40.660Z,177
2017-12-17T11:58:43.351Z,194
2017-12-17T11:59:45.764Z,192
2017-12-17T12:00:48.170Z,182
2017-12-17T12:01:50.595Z,88
2017-12-17T12:02:53.012Z,93
2017-12-17T12:03:55.405Z,155
2017-12-17T12:04:57.826Z,53
2017-12-17T12:06:00.251Z,50
2017-12-17T12:07:02.665Z,51
2017-12-17T12:08:05.076Z,58
2017-12-17T12:09:07.496Z,61
2017-12-17T12:10:09.909Z,54
2017-12-17T12:11:12.311Z,67
2017-12-17T12:12:14.729Z,65
2017-12-17T12:13:17.436Z,58
2017-12-17T12:14:19.850Z,55
2017-12-17T12:15:22.270Z,52
2017-12-17T12:16:24.695Z,41
2017-12-17T12:17:27.112Z,34
2017-12-17T12:18:29.526Z,40
2017-12-17T12:19:31.937Z,46
2017-12-17T12:20:34.355Z,48
2017-12-17T12:21:36.770Z,46
2017-12-17T12:22:39.466Z,42
2017-12-17T12:23:41.880Z,41
2017-12-17T12:24:44.297Z,39
2017-12-17T12:25:46.993Z,44
2017-12-17T12:26:49.686Z,34
2017-12-17T12:27:52.102Z,25
2017-12-17T12:28:54.815Z,20
2017-12-17T12:29:57.240Z,18
2017-12-17T12:30:59.649Z,16
2017-12-17T12:32:02.704Z,18
2017-12-17T12:33:05.110Z,18
2017-12-17T12:34:07.530Z,17
2017-12-17T12:35:09.941Z,16
2017-12-17T12:36:12.349Z,17
2017-12-17T12:37:14.776Z,17
2017-12-17T12:38:17.474Z,18
2017-12-17T12:39:19.898Z,16
2017-12-17T12:40:22.312Z,14
2017-12-17T12:41:24.728Z,13
2017-12-17T12:42:27.140Z,13
2017-12-17T12:43:29.566Z,12
2017-12-17T12:44:31.971Z,11
2017-12-17T12:45:34.435Z,11
2017-12-17T12:46:36.806Z,14
2017-12-17T12:47:39.522Z,17
2017-12-17T12:48:41.930Z,18
2017-12-17T12:49:44.343Z,14
2017-12-17T12:50:46.749Z,12
2017-12-17T12:51:49.161Z,11
2017-12-17T12:52:51.571Z,12
2017-12-17T12:53:53.990Z,14
2017-12-17T12:54:56.414Z,18
2017-12-17T12:55:58.834Z,17
2017-12-17T12:57:01.253Z,16
2017-12-17T12:58:03.659Z,13
2017-12-17T12:59:06.078Z,14
2017-12-17T13:00:08.486Z,13
2017-12-17T13:01:10.907Z,12
2017-12-17T13:02:13.603Z,11
2017-12-17T13:03:16.012Z,11
2017-12-17T13:04:18.702Z,12
2017-12-17T13:05:21.117Z,11
2017-12-17T13:06:23.538Z,10
2017-12-17T13:07:25.950Z,9
2017-12-17T13:08:28.637Z,8
2017-12-17T13:09:31.045Z,9
2017-12-17T13:10:33.465Z,10
2017-12-17T13:11:35.877Z,10
2017-12-17T13:12:38.293Z,9
2017-12-17T13:13:41.043Z,10
2017-12-17T13:14:43.454Z,10
2017-12-17T13:15:46.454Z,9
2017-12-17T13:16:48.888Z,10
2017-12-17T13:17:51.561Z,11
2017-12-17T13:18:53.975Z,12
2017-12-17T13:19:56.395Z,11
2017-12-17T13:20:58.813Z,9
2017-12-17T13:22:01.220Z,9
2017-12-17T13:23:03.927Z,8
2017-12-17T13:24:06.335Z,7
2017-12-17T13:25:08.749Z,8
2017-12-17T13:26:11.183Z,11
2017-12-17T13:27:13.866Z,13
2017-12-17T13:28:16.572Z,14
2017-12-17T13:29:18.981Z,12
2017-12-17T13:30:21.389Z,10
2017-12-17T13:31:23.805Z,8
2017-12-17T13:32:26.220Z,7
2017-12-17T13:33:28.626Z,7
2017-12-17T13:34:31.051Z,7
2017-12-17T13:35:33.465Z,8
2017-12-17T13:36:35.883Z,8
2017-12-17T13:37:38.290Z,8
2017-12-17T13:38:40.707Z,7
2017-12-17T13:39:43.119Z,6
2017-12-17T13:40:45.534Z,5
2017-12-17T13:41:47.950Z,5
2017-12-17T13:42:50.353Z,5
2017-12-17T13:43:52.781Z,5
2017-12-17T13:44:55.481Z,6
2017-12-17T13:45:58.187Z,6
2017-12-17T13:47:00.605Z,7
2017-12-17T13:48:03.011Z,7
2017-12-17T13:49:05.419Z,6
2017-12-17T13:50:07.845Z,6
2017-12-17T13:51:10.257Z,6
2017-12-17T13:52:12.674Z,7
2017-12-17T13:53:15.094Z,7
2017-12-17T13:54:17.513Z,7
2017-12-17T13:55:19.924Z,7
2017-12-17T13:56:22.611Z,7
2017-12-17T13:57:25.028Z,7
2017-12-17T13:58:27.436Z,8
2017-12-17T13:59:29.843Z,8
2017-12-17T14:00:32.546Z,9
2017-12-17T14:01:34.954Z,9
2017-12-17T14:02:37.368Z,10
2017-12-17T14:03:39.779Z,10
2017-12-17T14:04:42.501Z,9
2017-12-17T14:05:44.921Z,8
2017-12-17T14:06:47.336Z,5
2017-12-17T14:07:50.023Z,4
2017-12-17T14:08:52.447Z,3
2017-12-17T14:09:54.854Z,4
2017-12-17T14:10:57.258Z,5
2017-12-17T14:11:59.665Z,6
2017-12-17T14:13:02.073Z,6
2017-12-17T14:14:04.767Z,6
2017-12-17T14:15:07.192Z,6
2017-12-17T14:16:09.591Z,6
2017-12-17T14:17:11.997Z,5
2017-12-17T14:18:14.421Z,4
2017-12-17T14:19:16.831Z,4
2017-12-17T14:20:19.665Z,4
2017-12-17T14:21:22.185Z,4
2017-12-17T14:22:24.600Z,3
2017-12-17T14:23:27.008Z,3
2017-12-17T14:24:29.419Z,3
2017-12-17T14:25:31.839Z,3
2017-12-17T14:26:34.234Z,4
2017-12-17T14:27:36.657Z,4
2017-12-17T14:28:39.062Z,3
2017-12-17T14:29:41.483Z,3
2017-12-17T14:30:43.890Z,2
2017-12-17T14:31:46.307Z,2
2017-12-17T14:32:48.715Z,2
2017-12-17T14:33:51.130Z,2
2017-12-17T14:34:53.816Z,2
2017-12-17T14:35:56.221Z,2
2017-12-17T14:36:58.632Z,2
2017-12-17T14:38:01.048Z,2
2017-12-17T14:39:03.445Z,2
2017-12-17T14:40:05.863Z,2
2017-12-17T14:41:08.581Z,2
2017-12-17T14:42:10.995Z,2
2017-12-17T14:43:13.415Z,2
2017-12-17T14:44:15.829Z,2
2017-12-17T14:45:18.246Z,2
2017-12-17T14:46:20.798Z,2
2017-12-17T14:47:23.278Z,2
2017-12-17T14:48:25.686Z,2
2017-12-17T14:49:28.102Z,2
2017-12-17T14:50:30.496Z,2
2017-12-17T14:51:32.911Z,1
2017-12-17T14:52:35.623Z,1
2017-12-17T14:53:38.035Z,1
2017-12-17T14:54:40.446Z,1
2017-12-17T14:55:43.154Z,1
2017-12-17T14:56:45.561Z,1
2017-12-17T14:57:47.983Z,0
2017-12-17T14:58:50.395Z,0
2017-12-17T14:59:52.799Z,0
2017-12-17T15:00:55.208Z,0
2017-12-17T15:01:57.630Z,0
2017-12-17T15:03:00.317Z,0
2017-12-17T15:04:03.025Z,0
2017-12-17T15:05:05.441Z,0
2017-12-17T15:06:08.152Z,0
2017-12-17T15:07:10.551Z,0
2017-12-17T15:08:12.981Z,0
2017-12-17T15:09:15.385Z,0
2017-12-17T15:10:17.805Z,0
2017-12-17T15:11:20.217Z,0
2017-12-17T15:12:22.910Z,0
2017-12-17T15:13:25.601Z,0